Dobrodošli na spletni strani vremenske postaje Senovo. Vse informacije so informativnega značaja, saj vremenska postaja ni del državne mreže meteoroloških postaj. AKTUALNIH OBVESTIL NI.


Sneg/Led Od: 22-02-2018 00:00 Do: 23-02-2018 23:59 Opozorilo za: Sneg/Led Stopnja: Rumena info button
Veter Od: 22-02-2018 00:00 Do: 23:59 Opozorilo za: Veter Stopnja: Rumena info button

Pogled proti Armezu več informacij Pogled proti Armezu


Lisca več informacij Lisca


Radar strel več informacij blitzortung!


opozorilo za sneg/led več informacij rain snow radar


Obiščite še:

Template documentation
and downloads

And another site



Weather Underground, zgodovina - Tekstovno

Dnevni povzetek za Januar 15, 2018 Enote:  Angleško    Metrično   Obe
« Predhodni Dan
Naslednji Dan »
Dnevni Tedenski Mesečni Letni Po meri
  Višja: Nižja: Povprečje:
Temperatura: TemperatureC °F -1.1 °F -0 °F
Točka rosišča: DewpointC °F -4.0 °F -3.2 °F
Vlažnost: Humidity % 72 % 79 %
Hitrost vetra: WindSpeedKMH mph 0.0 mph 2.3 mph
Sunki vetra: WindSpeedGustKMH mph - -
Veter:- - SE
Zračni tlak: PressurehPa in 1016.1 in -
Padavine: 0.0 in    
Historical Graphs
 
 
Tabelarni podarki za Januar 15, 2018
Čas Temperatura Točka rosišča Zračni tlak Veter Hitrost vetra Sunki vetra Vlažnost Intenziteta padavin (urna)
TemperatureC °F DewpointC °F PressurehPa in Calm     Humidity % HourlyPrecipMM in
00:01 -0.5 °F -2.7 °F 1024.9 in ESE 4.8 mph 7.9 mph 85 % 0.0 in
00:22 -0.6 °F -2.8 °F 1023.9 in ESE 5.1 mph 10.1 mph 85 % 0.0 in
00:29 -0.6 °F -2.8 °F 1023.9 in ESE 5.6 mph 7.9 mph 85 % 0.0 in
00:37 -0.6 °F -2.8 °F 1023.9 in ESE 5.5 mph 9.0 mph 85 % 0.0 in
00:45 -0.7 °F -2.9 °F 1023.9 in ESE 5.5 mph 6.9 mph 85 % 0.0 in
00:52 -0.7 °F -2.9 °F 1023.9 in ESE 5.1 mph 8.7 mph 85 % 0.0 in
00:58 -0.7 °F -2.9 °F 1024.9 in ESE 4.2 mph 8.7 mph 85 % 0.0 in
01:08 -0.7 °F -2.9 °F 1024.9 in ESE 4.3 mph 9.0 mph 85 % 0.0 in
01:14 -0.8 °F -3.0 °F 1023.9 in ESE 4.2 mph 9.0 mph 85 % 0.0 in
01:19 -0.8 °F -3.0 °F 1023.9 in ESE 4.5 mph 9.0 mph 85 % 0.0 in
01:28 -0.8 °F -3.0 °F 1024.9 in ESE 5.0 mph 7.9 mph 85 % 0.0 in
01:41 -0.8 °F -3.0 °F 1024.9 in ESE 5.1 mph 10.1 mph 85 % 0.0 in
01:46 -0.8 °F -3.0 °F 1024.9 in SE 5.6 mph 10.1 mph 85 % 0.0 in
01:59 -0.9 °F -3.1 °F 1024.9 in ESE 5.6 mph 9.3 mph 85 % 0.0 in
02:14 -0.9 °F -3.1 °F 1024.9 in ESE 5.0 mph 7.6 mph 85 % 0.0 in
02:22 -0.9 °F -3.1 °F 1024.9 in SE 4.7 mph 7.9 mph 85 % 0.0 in
02:31 -0.9 °F -3.1 °F 1024.9 in ESE 4.5 mph 7.9 mph 85 % 0.0 in
02:40 -1.0 °F -3.2 °F 1024.9 in ESE 4.5 mph 6.9 mph 85 % 0.0 in
02:45 -1.0 °F -3.2 °F 1024.9 in ESE 3.7 mph 6.4 mph 85 % 0.0 in
02:54 -1.0 °F -3.2 °F 1024.9 in ESE 3.9 mph 6.4 mph 85 % 0.0 in
03:03 -1.0 °F -3.2 °F 1024.9 in ESE 5.1 mph 9.3 mph 85 % 0.0 in
03:29 -1.0 °F -3.2 °F 1023.9 in ESE 5.6 mph 11.6 mph 85 % 0.0 in
03:34 -1.0 °F -3.2 °F 1023.9 in ESE 6.4 mph 11.6 mph 85 % 0.0 in
03:40 -1.0 °F -3.2 °F 1023.9 in ESE 5.8 mph 9.7 mph 85 % 0.0 in
03:45 -1.0 °F -3.2 °F 1023.9 in SE 4.3 mph 7.9 mph 85 % 0.0 in
03:54 -1.0 °F -3.2 °F 1023.9 in SE 5.0 mph 10.1 mph 85 % 0.0 in
04:01 -1.0 °F -3.2 °F 1023.9 in ESE 3.7 mph 6.4 mph 85 % 0.0 in
04:06 -1.0 °F -3.2 °F 1023.9 in ESE 3.1 mph 6.1 mph 85 % 0.0 in
04:25 -1.0 °F -3.2 °F 1023.9 in ESE 2.4 mph 5.5 mph 85 % 0.0 in
04:31 -1.0 °F -3.2 °F 1023.9 in SE 3.4 mph 6.9 mph 85 % 0.0 in
04:38 -1.0 °F -3.2 °F 1023.9 in SSE 4.7 mph 6.9 mph 85 % 0.0 in
04:54 -1.0 °F -3.2 °F 1023.9 in SW 3.2 mph 4.7 mph 85 % 0.0 in
05:04 -1.0 °F -3.2 °F 1023.9 in SW 3.1 mph 6.1 mph 85 % 0.0 in
05:14 -1.1 °F -3.3 °F 1023.9 in WSW 3.7 mph 5.8 mph 85 % 0.0 in
05:40 -1.0 °F -3.2 °F 1023.9 in ESE 0.6 mph 3.2 mph 85 % 0.0 in
05:52 -1.0 °F -3.2 °F 1023.9 in SE 1.4 mph 4.0 mph 85 % 0.0 in
06:00 -1.0 °F -3.2 °F 1023.9 in SE 1.6 mph 4.3 mph 85 % 0.0 in
06:11 -1.0 °F -3.2 °F 1023.9 in SE 2.7 mph 4.3 mph 85 % 0.0 in
06:22 -1.0 °F -3.2 °F 1023.9 in SE 1.4 mph 4.0 mph 85 % 0.0 in
06:32 -0.9 °F -3.3 °F 1023.9 in SE 0.6 mph 4.3 mph 84 % 0.0 in
06:54 -0.9 °F -3.3 °F 1023.9 in SSW 0.5 mph 3.2 mph 84 % 0.0 in
07:04 -1.0 °F -3.2 °F 1023.9 in WSW 1.8 mph 4.3 mph 85 % 0.0 in
07:10 -1.0 °F -3.2 °F 1023.9 in WSW 2.7 mph 4.3 mph 85 % 0.0 in
07:15 -1.0 °F -3.2 °F 1023.9 in SW 1.0 mph 3.2 mph 85 % 0.0 in
07:34 -1.0 °F -3.4 °F 1023.9 in SE 1.8 mph 5.5 mph 84 % 0.0 in
07:46 -1.0 °F -3.4 °F 1023.9 in SE 3.4 mph 5.5 mph 84 % 0.0 in
07:54 -0.9 °F -3.3 °F 1023.9 in SE 3.4 mph 5.8 mph 84 % 0.0 in
08:04 -0.9 °F -3.3 °F 1024.9 in SSE 2.3 mph 5.5 mph 84 % 0.0 in
08:15 -0.9 °F -3.4 °F 1024.9 in SSE 1.8 mph 5.0 mph 83 % 0.0 in
08:21 -0.8 °F -3.3 °F 1024.9 in SSE 2.4 mph 6.1 mph 83 % 0.0 in
08:26 -0.8 °F -3.3 °F 1024.9 in South 2.3 mph 5.8 mph 83 % 0.0 in
08:47 -0.7 °F -3.2 °F 1024.9 in SW 2.6 mph 4.0 mph 83 % 0.0 in
08:53 -0.7 °F -3.2 °F 1024.9 in SW 1.4 mph 3.5 mph 83 % 0.0 in
08:58 -0.7 °F -3.4 °F 1024.9 in SW 0.2 mph 2.1 mph 82 % 0.0 in
09:12 -0.6 °F -3.3 °F 1024.9 in Calm     82 % 0.0 in
09:20 -0.6 °F -3.3 °F 1024.9 in Calm     82 % 0.0 in
09:28 -0.5 °F -3.2 °F 1024.9 in ENE 0.8 mph 4.7 mph 82 % 0.0 in
09:37 -0.5 °F -3.3 °F 1024.9 in ENE 2.1 mph 4.7 mph 81 % 0.0 in
09:42 -0.5 °F -3.3 °F 1024.9 in East 1.0 mph 4.0 mph 81 % 0.0 in
09:48 -0.4 °F -3.3 °F 1024.9 in ESE 1.9 mph 4.0 mph 81 % 0.0 in
10:01 -0.3 °F -3.3 °F 1024.9 in ENE 4.5 mph 6.1 mph 80 % 0.0 in
10:06 -0.3 °F -3.3 °F 1024.9 in ENE 4.7 mph 6.1 mph 80 % 0.0 in
10:16 0.0 °F -3.1 °F 1024.9 in East 2.1 mph 5.0 mph 80 % 0.0 in
10:24 0.1 °F -2.9 °F 1024.9 in East 2.9 mph 5.0 mph 80 % 0.0 in
10:29 0.2 °F -2.8 °F 1024.9 in ENE 2.7 mph 5.0 mph 80 % 0.0 in
10:35 0.3 °F -2.7 °F 1024.9 in East 2.7 mph 5.0 mph 80 % 0.0 in
10:40 0.4 °F -2.7 °F 1024.9 in ESE 2.1 mph 4.0 mph 80 % 0.0 in
10:57 0.5 °F -2.7 °F 1024.9 in NE 1.4 mph 4.0 mph 79 % 0.0 in
11:04 0.5 °F -2.7 °F 1024.9 in NE 1.1 mph 4.7 mph 79 % 0.0 in
11:12 0.5 °F -2.7 °F 1024.9 in NE 1.3 mph 4.3 mph 79 % 0.0 in
11:18 0.6 °F -2.8 °F 1024.9 in NE 0.5 mph 4.0 mph 78 % 0.0 in
11:25 0.6 °F -2.8 °F 1024.9 in NNE 0.8 mph 4.0 mph 78 % 0.0 in
11:41 0.8 °F -2.6 °F 1023.9 in SSE 2.4 mph 6.1 mph 78 % 0.0 in
11:50 1.0 °F -2.6 °F 1023.9 in SSE 1.8 mph 4.3 mph 77 % 0.0 in
11:55 1.0 °F -2.6 °F 1023.9 in SSW 1.4 mph 5.5 mph 77 % 0.0 in
12:01 1.0 °F -2.6 °F 1023.9 in SW 1.8 mph 4.0 mph 77 % 0.0 in
12:07 1.1 °F -2.5 °F 1023.9 in SSW 1.6 mph 4.0 mph 77 % 0.0 in
12:17 1.2 °F -2.6 °F 1023.9 in ENE 1.4 mph 5.0 mph 76 % 0.0 in
12:22 1.3 °F -2.4 °F 1023.9 in East 2.4 mph 6.1 mph 76 % 0.0 in
12:28 1.3 °F -2.4 °F 1023.9 in South 2.7 mph 6.1 mph 76 % 0.0 in
12:33 1.3 °F -2.4 °F 1023.9 in SSW 2.3 mph 5.0 mph 76 % 0.0 in
12:43 1.3 °F -2.7 °F 1022.9 in SSW 1.0 mph 5.5 mph 75 % 0.0 in
12:48 1.3 °F -2.7 °F 1022.9 in South 3.2 mph 9.0 mph 75 % 0.0 in
12:53 1.4 °F -2.6 °F 1022.9 in SSE 3.7 mph 9.0 mph 75 % 0.0 in
12:59 1.4 °F -2.6 °F 1021.9 in SSE 3.4 mph 6.4 mph 75 % 0.0 in
13:07 1.4 °F -2.7 °F 1021.9 in South 3.9 mph 7.9 mph 74 % 0.0 in
13:13 1.4 °F -2.7 °F 1021.9 in SSW 3.2 mph 5.5 mph 74 % 0.0 in
13:19 1.4 °F -2.7 °F 1021.9 in SSW 3.4 mph 5.8 mph 74 % 0.0 in
13:24 1.3 °F -2.8 °F 1021.9 in SSW 4.0 mph 6.1 mph 74 % 0.0 in
13:32 1.2 °F -3.1 °F 1022.9 in South 2.9 mph 7.9 mph 73 % 0.0 in
13:37 1.1 °F -3.2 °F 1022.9 in SSW 2.1 mph 7.9 mph 73 % 0.0 in
13:51 1.1 °F -3.2 °F 1022.9 in SE 3.5 mph 6.1 mph 73 % 0.0 in
14:02 1.1 °F -3.2 °F 1021.9 in ESE 1.4 mph 5.0 mph 73 % 0.0 in
14:08 1.1 °F -3.2 °F 1021.9 in SSE 1.9 mph 5.8 mph 73 % 0.0 in
14:18 1.1 °F -3.2 °F 1021.9 in SE 3.5 mph 6.9 mph 73 % 0.0 in
14:24 1.1 °F -3.2 °F 1021.9 in SSE 2.9 mph 5.5 mph 73 % 0.0 in
14:35 1.0 °F -3.5 °F 1021.9 in SSE 4.5 mph 6.9 mph 72 % 0.0 in
14:42 1.0 °F -3.5 °F 1021.9 in SSE 3.7 mph 6.9 mph 72 % 0.0 in
14:48 1.0 °F -3.5 °F 1021.9 in SSW 3.5 mph 6.1 mph 72 % 0.0 in
15:04 0.8 °F -3.5 °F 1021.9 in SW 3.5 mph 9.0 mph 73 % 0.0 in
15:16 0.8 °F -3.5 °F 1020.9 in South 2.9 mph 4.7 mph 73 % 0.0 in
15:23 0.8 °F -3.5 °F 1020.9 in South 2.1 mph 4.7 mph 73 % 0.0 in
15:29 0.8 °F -3.5 °F 1020.9 in SSW 2.1 mph 5.0 mph 73 % 0.0 in
15:35 0.7 °F -3.6 °F 1020.9 in South 2.6 mph 5.0 mph 73 % 0.0 in
15:40 0.7 °F -3.6 °F 1020.9 in SE 3.2 mph 6.4 mph 73 % 0.0 in
15:48 0.7 °F -3.6 °F 1020.9 in SE 3.5 mph 6.4 mph 73 % 0.0 in
15:55 0.6 °F -3.7 °F 1020.9 in SE 3.2 mph 6.1 mph 73 % 0.0 in
16:08 0.6 °F -3.7 °F 1020.9 in SE 3.7 mph 5.5 mph 73 % 0.0 in
16:18 0.6 °F -3.5 °F 1020.9 in SE 2.3 mph 6.4 mph 74 % 0.0 in
16:28 0.5 °F -3.6 °F 1019.9 in SE 0.8 mph 4.0 mph 74 % 0.0 in
16:41 0.4 °F -3.7 °F 1020.9 in SSE 1.3 mph 4.7 mph 74 % 0.0 in
16:49 0.4 °F -3.7 °F 1020.9 in SE 1.6 mph 5.5 mph 74 % 0.0 in
17:05 0.3 °F -3.8 °F 1020.9 in ESE 1.3 mph 5.0 mph 74 % 0.0 in
17:14 0.3 °F -3.8 °F 1020.9 in SSE 0.6 mph 4.0 mph 74 % 0.0 in
17:21 0.3 °F -3.8 °F 1020.9 in SE 2.7 mph 6.1 mph 74 % 0.0 in
17:26 0.3 °F -3.8 °F 1020.9 in SE 1.8 mph 6.1 mph 74 % 0.0 in
17:45 0.2 °F -3.9 °F 1020.9 in SSE 1.4 mph 4.7 mph 74 % 0.0 in
17:52 0.1 °F -4.0 °F 1020.9 in SSE 0.2 mph 2.1 mph 74 % 0.0 in
17:57 0.1 °F -4.0 °F 1020.9 in SSE 0.2 mph 2.6 mph 74 % 0.0 in
18:10 0.1 °F -4.0 °F 1020.9 in South 0.8 mph 4.0 mph 74 % 0.0 in
18:16 0.1 °F -4.0 °F 1020.9 in SSW 1.1 mph 4.0 mph 74 % 0.0 in
18:35 0.1 °F -3.8 °F 1019.9 in West 0.2 mph 2.6 mph 75 % 0.0 in
18:40 0.1 °F -3.8 °F 1019.9 in SW 0.2 mph 1.8 mph 75 % 0.0 in
18:48 0.1 °F -3.8 °F 1019.9 in Calm     75 % 0.0 in
18:57 0.0 °F -3.9 °F 1019.9 in Calm   2.6 mph 75 % 0.0 in
19:14 0.1 °F -3.8 °F 1018.8 in SW 0.2 mph 2.6 mph 75 % 0.0 in
19:19 0.1 °F -3.8 °F 1018.8 in South 0.2 mph 5.0 mph 75 % 0.0 in
19:31 0.1 °F -3.6 °F 1018.8 in South 0.3 mph 2.6 mph 76 % 0.0 in
19:48 0.1 °F -3.6 °F 1018.8 in East 0.2 mph 3.5 mph 76 % 0.0 in
19:55 0.1 °F -3.6 °F 1018.8 in SE 1.3 mph 4.3 mph 76 % 0.0 in
20:01 0.1 °F -3.6 °F 1018.2 in SW 1.3 mph 4.3 mph 76 % 0.0 in
20:10 0.1 °F -3.6 °F 1018.2 in WSW 1.1 mph 4.3 mph 76 % 0.0 in
20:37 0.1 °F -3.4 °F 1018.2 in Calm     77 % 0.0 in
20:42 0.1 °F -3.4 °F 1018.8 in Calm     77 % 0.0 in
21:06 0.0 °F -3.6 °F 1018.8 in Calm     77 % 0.0 in
21:11 0.1 °F -3.4 °F 1018.8 in Calm     77 % 0.0 in
21:16 0.0 °F -3.4 °F 1018.8 in Calm     78 % 0.0 in
21:24 0.0 °F -3.4 °F 1018.8 in Calm     78 % 0.0 in
21:29 0.0 °F -3.4 °F 1018.2 in Calm     78 % 0.0 in
21:46 0.1 °F -3.3 °F 1018.2 in NE 0.3 mph 4.0 mph 78 % 0.0 in
21:47 0.1 °F -3.3 °F 1018.2 in NE 0.5 mph 4.0 mph 78 % 0.0 in
21:48 0.1 °F -3.3 °F 1018.2 in NE 0.6 mph 4.0 mph 78 % 0.0 in
21:49 0.1 °F -3.3 °F 1018.2 in NE 0.6 mph 4.0 mph 78 % 0.0 in
21:50 0.1 °F -3.3 °F 1018.2 in NE 0.6 mph 4.0 mph 78 % 0.0 in
21:51 0.1 °F -3.3 °F 1018.2 in NE 0.6 mph 4.0 mph 78 % 0.0 in
21:52 0.1 °F -3.3 °F 1018.2 in NE 0.6 mph 3.5 mph 78 % 0.0 in
21:53 0.1 °F -3.3 °F 1018.2 in NE 0.5 mph 3.5 mph 78 % 0.0 in
22:02 0.1 °F -3.3 °F 1016.8 in Calm     78 % 0.0 in
22:06 0.1 °F -3.3 °F 1016.8 in Calm   3.2 mph 78 % 0.0 in
22:13 0.1 °F -3.3 °F 1016.1 in ENE 1.8 mph 4.3 mph 78 % 0.0 in
22:17 0.1 °F -3.3 °F 1016.1 in ENE 1.6 mph 4.3 mph 78 % 0.0 in
22:26 0.1 °F -3.3 °F 1016.8 in West 1.9 mph 6.1 mph 78 % 0.0 in
22:58 0.1 °F -3.1 °F 1018.2 in WSW 1.1 mph 5.0 mph 79 % 0.0 in
23:19 0.1 °F -3.1 °F 1016.8 in WSW 1.6 mph 4.3 mph 79 % 0.0 in
23:26 0.1 °F -3.1 °F 1016.8 in Calm     79 % 0.0 in
23:44 0.0 °F -3.1 °F 1016.1 in Calm     80 % 0.0 in
Vremenska postaja Senovo
Podatki zbrani iz Weather Underground - 2.25 mb

Script developed by  Jim McMurry - jmcmurry@mwt.net Adapted for the template by  Wim van der Kuil - Leuven-Template.eu

Vremenski podatki so objavljeni na:

European Weather Network

WeatherCloud

Weather Underground

AWEKAS

HAMweather, WeatherForYou, PWS Weather

MapView

Geostik

Slovenia weather network

Oprema, ki se uporablja:

Vremenski program
Cumulus

Vremenski server
Asus

Cumulus

Asus